Time;durP1;ratioP1;P1;durP2;ratioP2;P2;SDS_P1;SDS_P2;PMS_P1;PMS_P2;Temp;Humidity;BMP_temperature;BMP_pressure;BME280_temperature;BME280_humidity;BME280_pressure;Samples;Min_cycle;Max_cycle;Signal;HPM_P1;HPM_P2
2023/07/24 00:07:08;;;;;;;5.80;4.40;;;;;;;21.58;50.26;98000.25;436284;1254;107370;-41
2023/07/24 00:17:16;;;;;;;6.90;6.00;;;;;;;21.38;50.59;98004.92;434702;1254;393355;-41
2023/07/24 00:27:23;;;;;;;9.20;5.60;;;;;;;21.34;50.37;98008.50;435491;1253;109600;-42
2023/07/24 00:37:30;;;;;;;6.90;5.40;;;;;;;21.28;50.35;98004.13;437090;1255;97937;-42
2023/07/24 00:47:37;;;;;;;7.50;5.00;;;;;;;21.08;50.64;98004.11;437161;1260;111309;-42
2023/07/24 01:07:51;;;;;;;9.80;5.00;;;;;;;20.43;51.55;97995.38;436573;1257;97916;-41
2023/07/24 01:28:09;;;;;;;8.10;5.20;;;;;;;19.58;52.98;97984.23;437182;1254;98595;-41
2023/07/24 01:38:15;;;;;;;8.40;5.50;;;;;;;19.32;53.53;97978.55;435214;1257;111296;-47
2023/07/24 01:48:22;;;;;;;8.20;5.30;;;;;;;18.96;54.12;97967.64;435021;1256;108374;-42
2023/07/24 01:58:29;;;;;;;12.70;6.20;;;;;;;18.65;55.11;97965.95;435194;1267;99284;-41
2023/07/24 02:08:37;;;;;;;10.90;6.00;;;;;;;18.55;55.85;97958.26;435152;1255;108457;-41
2023/07/24 02:18:43;;;;;;;7.40;5.50;;;;;;;18.36;56.96;97950.75;435814;1254;99194;-43
2023/07/24 02:28:50;;;;;;;10.30;6.50;;;;;;;18.26;57.66;97955.08;437511;1256;111059;-41
2023/07/24 02:38:57;;;;;;;6.90;5.40;;;;;;;18.21;58.18;97951.88;437564;1254;108208;-44
2023/07/24 02:49:04;;;;;;;9.70;6.20;;;;;;;18.08;58.70;97943.61;436731;1254;99219;-42
2023/07/24 02:59:11;;;;;;;9.60;7.20;;;;;;;17.88;59.38;97944.07;436387;1253;106923;-42
2023/07/24 03:09:18;;;;;;;13.10;7.10;;;;;;;17.78;60.08;97946.33;436557;1254;97988;-43
2023/07/24 03:19:25;;;;;;;12.00;6.50;;;;;;;17.82;60.49;97940.75;435895;1256;112175;-41
2023/07/24 03:29:32;;;;;;;12.10;6.90;;;;;;;17.88;60.83;97937.96;436248;1254;107363;-43
2023/07/24 03:39:39;;;;;;;9.40;6.80;;;;;;;18.12;61.31;97943.65;436453;1257;99196;-43
2023/07/24 03:49:46;;;;;;;9.40;6.70;;;;;;;18.83;61.68;97947.79;436424;1257;107885;-42
2023/07/24 03:59:53;;;;;;;9.40;6.90;;;;;;;19.76;61.46;97949.19;435760;1254;98650;-43
2023/07/24 04:10:00;;;;;;;9.00;6.40;;;;;;;20.12;61.31;97950.64;435836;1255;112073;-42
2023/07/24 04:20:06;;;;;;;11.00;7.80;;;;;;;20.28;61.15;97955.70;435649;1254;108019;-43
2023/07/24 04:30:13;;;;;;;6.50;5.40;;;;;;;21.11;60.59;97947.08;435227;1256;99218;-43
2023/07/24 04:40:18;;;;;;;;;;;;;;;21.53;59.86;97948.60;435216;1256;108227;-42
2023/07/24 04:50:25;;;;;;;11.00;7.60;;;;;;;21.19;59.74;97950.37;435151;1253;97975;-42
2023/07/24 05:00:32;;;;;;;12.10;7.00;;;;;;;21.57;59.89;97949.14;435150;1256;113054;-41
2023/07/24 05:10:39;;;;;;;13.90;7.10;;;;;;;22.79;59.24;97942.25;435217;1254;108603;-42
2023/07/24 05:30:52;;;;;;;9.60;6.90;;;;;;;24.58;56.89;97939.15;435161;1254;107085;-41
2023/07/24 05:51:02;;;;;;;18.70;8.10;;;;;;;25.54;54.27;97931.46;435121;1254;113900;-42
2023/07/24 06:11:14;;;;;;;18.70;8.00;;;;;;;26.11;53.06;97933.08;435113;1257;99212;-42
2023/07/24 06:21:20;;;;;;;47.30;9.40;;;;;;;26.47;53.26;97923.52;435249;1256;108529;-41
2023/07/24 06:41:31;;;;;;;10.20;5.10;;;;;;;28.38;50.53;97913.30;435251;1256;111064;-43
2023/07/24 06:51:38;;;;;;;13.30;4.90;;;;;;;29.27;48.29;97906.14;435082;1252;107982;-42
2023/07/24 07:01:45;;;;;;;6.20;4.80;;;;;;;29.68;46.92;97902.98;435082;1256;99194;-42
2023/07/24 07:21:57;;;;;;;8.40;4.50;;;;;;;30.55;44.36;97874.57;435197;1254;99215;-42
2023/07/24 07:42:08;;;;;;;45.10;6.70;;;;;;;30.52;42.23;97873.14;435184;1256;107776;-42
2023/07/24 07:52:24;;;;;;;8.90;4.90;;;;;;;30.61;41.67;97868.68;435212;1254;98839;-44
2023/07/24 08:02:31;;;;;;;7.60;5.00;;;;;;;30.54;40.87;97858.89;435246;1256;107147;-43
2023/07/24 08:12:39;;;;;;;5.60;5.00;;;;;;;30.12;40.57;97861.52;435145;1252;97986;-42
2023/07/24 08:32:53;;;;;;;6.50;5.90;;;;;;;29.33;39.56;97859.94;435106;1253;108409;-42
2023/07/24 08:43:01;;;;;;;7.10;5.30;;;;;;;29.05;39.76;97840.69;435100;1256;97969;-41
2023/07/24 08:53:09;;;;;;;40.90;7.50;;;;;;;29.24;39.61;97827.15;435220;1256;108664;-43
2023/07/24 09:03:16;;;;;;;6.80;5.70;;;;;;;29.04;39.30;97830.90;435200;1253;99371;-41
2023/07/24 09:13:23;;;;;;;9.60;6.30;;;;;;;29.22;39.74;97831.64;435308;1256;111873;-42
2023/07/24 09:23:31;;;;;;;9.90;5.90;;;;;;;30.14;39.34;97811.84;435238;1257;107459;-43
2023/07/24 09:33:36;;;;;;;8.40;5.90;;;;;;;30.44;38.09;97795.23;435259;1254;97989;-43
2023/07/24 10:04:05;;;;;;;8.90;7.30;;;;;;;31.12;37.29;97758.98;435059;1254;112359;-43
2023/07/24 10:14:13;;;;;;;8.80;7.00;;;;;;;31.19;36.63;97754.31;435356;1256;100191;-42
2023/07/24 10:24:30;;;;;;;9.80;6.80;;;;;;;31.36;36.19;97746.71;435635;1252;98721;-42
2023/07/24 10:34:57;;;;;;;16.70;7.10;;;;;;;31.62;36.28;97729.65;436139;1254;108027;-42
2023/07/24 10:45:12;;;;;;;10.30;7.70;;;;;;;31.99;35.96;97721.75;435353;1253;99215;-44
2023/07/24 10:55:22;;;;;;;11.60;7.70;;;;;;;32.05;34.72;97714.71;435230;1254;103921;-43
2023/07/24 11:05:28;;;;;;;9.90;7.70;;;;;;;32.14;34.59;97716.95;435609;1256;99697;-43
2023/07/24 11:15:35;;;;;;;9.30;7.90;;;;;;;31.29;34.28;97730.27;435802;1253;97982;-43
2023/07/24 11:25:43;;;;;;;9.90;7.60;;;;;;;30.34;34.96;97730.80;435622;1254;108188;-43
2023/07/24 11:35:48;;;;;;;37.90;10.30;;;;;;;30.07;35.65;97712.31;436284;1256;99233;-41
2023/07/24 11:56:02;;;;;;;12.20;8.20;;;;;;;31.44;35.24;97702.22;435123;1256;107802;-42
2023/07/24 12:06:17;;;;;;;10.50;8.00;;;;;;;31.88;34.68;97680.82;435133;1254;98837;-41
2023/07/24 12:16:24;;;;;;;10.60;7.80;;;;;;;32.07;34.41;97667.42;434873;1256;447617;-41
2023/07/24 12:26:31;;;;;;;12.80;9.00;;;;;;;32.14;34.17;97658.42;435208;1256;97998;-42
2023/07/24 12:36:39;;;;;;;9.40;8.30;;;;;;;32.17;33.42;97640.92;435257;1258;103639;-42
2023/07/24 12:46:44;;;;;;;10.90;8.90;;;;;;;32.07;33.57;97630.48;435044;1256;100070;-43
2023/07/24 12:56:52;;;;;;;11.10;9.30;;;;;;;31.91;33.86;97616.23;435240;1256;97983;-41
2023/07/24 13:06:59;;;;;;;11.40;9.00;;;;;;;31.70;33.94;97596.29;435114;1255;100143;-41
2023/07/24 13:27:10;;;;;;;13.20;9.80;;;;;;;31.72;33.97;97564.58;435150;1256;103643;-42
2023/07/24 13:47:23;;;;;;;16.40;8.60;;;;;;;31.98;34.29;97551.77;434892;1256;99471;-42
2023/07/24 13:57:30;;;;;;;9.80;8.80;;;;;;;32.06;34.27;97533.45;434905;1256;100126;-42
2023/07/24 14:07:36;;;;;;;11.90;9.40;;;;;;;31.74;33.91;97497.87;435122;1256;98014;-41
2023/07/24 14:17:43;;;;;;;12.70;9.60;;;;;;;31.01;34.52;97494.20;435019;1257;112947;-41
2023/07/24 14:27:51;;;;;;;14.80;9.40;;;;;;;30.61;35.15;97495.14;435024;1256;108617;-41
2023/07/24 14:37:56;;;;;;;12.50;8.80;;;;;;;30.23;36.01;97488.92;435067;1255;99307;-41
2023/07/24 14:48:02;;;;;;;12.10;9.00;;;;;;;30.03;36.55;97474.77;435107;1254;108164;-42
2023/07/24 14:58:09;;;;;;;10.60;9.50;;;;;;;29.35;37.80;97445.45;435214;1256;99243;-41
2023/07/24 15:18:24;;;;;;;18.30;9.60;;;;;;;28.94;40.01;97388.98;435062;1256;108958;-41
2023/07/24 15:28:31;;;;;;;15.90;9.70;;;;;;;28.61;40.99;97415.89;435286;1256;97961;-42
2023/07/24 15:38:38;;;;;;;15.90;9.70;;;;;;;27.18;43.63;97579.52;435038;1257;110239;-42
2023/07/24 15:48:46;;;;;;;11.10;8.20;;;;;;;24.49;48.21;97592.89;435150;1256;99317;-44
2023/07/24 15:58:50;;;;;;;;;;;;;;;23.22;50.48;97539.12;435183;1256;112065;-43
2023/07/24 16:19:14;;;;;;;9.10;6.60;;;;;;;22.83;54.24;97470.35;435201;1257;99234;-43
2023/07/24 16:29:21;;;;;;;13.30;7.30;;;;;;;23.17;55.55;97463.73;435011;1256;106903;-42
2023/07/24 16:59:37;;;;;;;13.00;8.30;;;;;;;23.67;57.72;97398.50;435189;1256;108129;-43
2023/07/24 17:09:44;;;;;;;13.60;8.70;;;;;;;23.52;58.36;97405.53;435210;1253;99214;-43
2023/07/24 17:19:49;;;;;;;13.90;8.50;;;;;;;22.96;60.13;97406.69;435050;1254;109489;-42
2023/07/24 17:29:55;;;;;;;11.70;8.60;;;;;;;22.66;60.83;97383.73;435101;1257;99352;-42
2023/07/24 17:40:01;;;;;;;12.80;8.70;;;;;;;22.56;61.38;97371.41;435120;1257;111673;-43
2023/07/24 17:50:09;;;;;;;14.60;8.60;;;;;;;22.64;62.16;97358.89;434992;1257;108616;-43
2023/07/24 18:00:18;;;;;;;12.50;8.10;;;;;;;22.29;62.70;97385.27;435184;1256;98620;-43
2023/07/24 18:10:24;;;;;;;15.00;8.00;;;;;;;21.78;64.28;97386.62;435072;1254;108860;-42
2023/07/24 18:20:32;;;;;;;12.60;8.90;;;;;;;21.36;66.16;97395.33;434971;1257;99250;-43
2023/07/24 18:30:39;;;;;;;16.10;9.80;;;;;;;21.19;67.39;97404.67;435013;1256;110520;-43
2023/07/24 18:40:44;;;;;;;14.40;9.70;;;;;;;20.98;68.77;97386.45;434922;1257;109446;-43
2023/07/24 18:50:51;;;;;;;14.70;9.60;;;;;;;20.80;71.11;97371.73;434933;1256;99234;-42
2023/07/24 19:00:56;;;;;;;17.40;9.90;;;;;;;20.73;72.25;97355.95;434929;1266;108938;-43
2023/07/24 19:11:02;;;;;;;14.70;10.10;;;;;;;20.78;72.24;97330.80;435012;1258;99259;-43
2023/07/24 19:21:10;;;;;;;16.10;10.90;;;;;;;20.93;72.19;97306.48;435019;1256;111578;-43
2023/07/24 19:31:16;;;;;;;17.30;12.20;;;;;;;21.07;71.04;97285.75;435073;1257;108530;-43
2023/07/24 19:41:21;;;;;;;16.10;10.90;;;;;;;21.05;70.84;97271.54;434971;1257;99376;-43
2023/07/24 19:51:29;;;;;;;13.20;10.70;;;;;;;20.91;70.99;97249.51;435035;1257;108670;-42
2023/07/24 20:01:35;;;;;;;;;;;;;;;20.78;71.24;97255.30;434966;1256;99212;-42
2023/07/24 20:11:42;;;;;;;17.70;11.10;;;;;;;20.69;71.20;97238.45;435124;1256;111783;-44
2023/07/24 20:21:47;;;;;;;20.90;12.00;;;;;;;20.56;71.53;97239.20;435030;1254;107479;-41
2023/07/24 20:31:55;;;;;;;19.00;12.60;;;;;;;20.42;71.93;97233.67;435026;1257;99120;-41
2023/07/24 20:42:01;;;;;;;;;;;;;;;20.36;72.79;97256.27;435291;1256;107542;-41
2023/07/24 20:52:08;;;;;;;21.50;12.30;;;;;;;20.34;73.54;97269.80;435093;1257;99237;-41
2023/07/24 21:32:33;;;;;;;17.00;10.40;;;;;;;20.54;73.01;97276.60;435116;1257;108176;-42
2023/07/24 21:42:41;;;;;;;14.30;9.20;;;;;;;20.42;73.01;97258.27;435096;1257;98755;-42
2023/07/24 21:52:48;;;;;;;12.20;9.30;;;;;;;20.25;73.43;97251.21;435112;1257;111934;-40
2023/07/24 22:02:55;;;;;;;12.80;8.30;;;;;;;20.26;73.42;97252.24;435233;1257;108969;-40
2023/07/24 22:13:02;;;;;;;11.40;8.60;;;;;;;20.47;73.14;97263.83;435299;1254;99231;-41
2023/07/24 22:33:14;;;;;;;11.60;7.50;;;;;;;20.57;72.69;97264.32;435108;1257;99273;-41
2023/07/24 22:43:21;;;;;;;11.10;7.70;;;;;;;20.53;72.34;97261.77;435170;1257;112834;-41
2023/07/24 22:53:29;;;;;;;11.10;7.10;;;;;;;20.37;72.35;97252.98;435120;1254;107142;-42
2023/07/24 23:03:35;;;;;;;10.50;8.40;;;;;;;20.18;72.62;97264.62;435338;1254;98743;-41
2023/07/24 23:23:48;;;;;;;10.00;7.10;;;;;;;19.79;72.82;97271.41;435164;1256;99218;-42
2023/07/24 23:33:56;;;;;;;10.10;6.90;;;;;;;19.57;73.03;97285.02;435239;1257;110772;-42
2023/07/24 23:44:02;;;;;;;9.90;6.70;;;;;;;19.45;73.28;97282.58;434963;1257;109361;-41
2023/07/24 23:54:09;;;;;;;12.20;8.00;;;;;;;19.36;73.65;97280.48;435076;1257;99327;-42
